createdAt,value
2023-02-26T00:01:40.278Z,2.08
2023-02-26T00:04:08.545Z,2.10
2023-02-26T00:06:38.354Z,2.14
2023-02-26T00:09:06.558Z,2.16
2023-02-26T00:11:35.049Z,2.20
2023-02-26T00:14:02.944Z,2.22
2023-02-26T00:16:32.781Z,2.25
2023-02-26T00:19:02.143Z,2.27
2023-02-26T00:21:30.966Z,2.27
2023-02-26T00:23:58.697Z,2.27
2023-02-26T00:26:27.603Z,2.24
2023-02-26T00:28:56.047Z,2.20
2023-02-26T00:31:27.400Z,2.15
2023-02-26T00:33:56.005Z,2.10
2023-02-26T00:36:25.824Z,2.04
2023-02-26T00:39:07.647Z,1.98
2023-02-26T00:41:36.537Z,1.91
2023-02-26T00:44:04.664Z,1.84
2023-02-26T00:46:35.520Z,1.79
2023-02-26T00:49:09.535Z,1.74
2023-02-26T00:51:56.921Z,1.69
2023-02-26T00:54:24.922Z,1.64
2023-02-26T00:56:53.413Z,1.60
2023-02-26T00:59:22.086Z,1.57
2023-02-26T01:01:50.188Z,1.54
2023-02-26T01:04:19.505Z,1.51
2023-02-26T01:06:49.221Z,1.49
2023-02-26T01:09:23.325Z,1.47
2023-02-26T01:11:51.545Z,1.46
2023-02-26T01:14:20.009Z,1.43
2023-02-26T01:17:11.361Z,1.41
2023-02-26T01:19:44.173Z,1.36
2023-02-26T01:22:36.220Z,1.33
2023-02-26T01:25:07.105Z,1.29
2023-02-26T01:27:35.207Z,1.25
2023-02-26T01:30:04.619Z,1.21
2023-02-26T01:32:35.429Z,1.17
2023-02-26T01:35:03.616Z,1.15
2023-02-26T01:37:54.186Z,1.12
2023-02-26T01:40:41.182Z,1.10
2023-02-26T01:43:14.853Z,1.09
2023-02-26T01:45:54.075Z,1.09
2023-02-26T01:48:42.057Z,1.13
2023-02-26T01:51:09.791Z,1.19
2023-02-26T01:53:37.545Z,1.27
2023-02-26T01:56:10.271Z,1.35
2023-02-26T01:58:39.241Z,1.41
2023-02-26T02:01:07.887Z,1.46
2023-02-26T02:03:38.383Z,1.50
2023-02-26T02:06:08.367Z,1.52
2023-02-26T02:08:36.779Z,1.58
2023-02-26T02:11:07.258Z,1.64
2023-02-26T02:13:35.109Z,1.68
2023-02-26T02:16:09.266Z,1.71
2023-02-26T02:18:59.094Z,1.73
2023-02-26T02:21:44.850Z,1.74
2023-02-26T02:24:20.300Z,1.74
2023-02-26T02:26:50.824Z,1.73
2023-02-26T02:29:47.542Z,1.69
2023-02-26T02:32:18.624Z,1.65
2023-02-26T02:34:49.467Z,1.60
2023-02-26T02:37:35.914Z,1.54
2023-02-26T02:40:11.663Z,1.48
2023-02-26T02:42:43.707Z,1.41
2023-02-26T02:45:17.599Z,1.37
2023-02-26T02:47:47.905Z,1.32
2023-02-26T02:50:20.525Z,1.29
2023-02-26T02:52:54.591Z,1.25
2023-02-26T02:55:25.235Z,1.22
2023-02-26T02:58:00.752Z,1.21
2023-02-26T03:00:32.040Z,1.21
2023-02-26T03:03:09.567Z,1.22
2023-02-26T03:05:37.292Z,1.24
2023-02-26T03:08:09.031Z,1.28
2023-02-26T03:10:36.886Z,1.31
2023-02-26T03:13:05.217Z,1.35
2023-02-26T03:15:38.655Z,1.39
2023-02-26T03:18:15.492Z,1.42
2023-02-26T03:21:15.816Z,1.46
2023-02-26T03:23:50.253Z,1.49
2023-02-26T03:26:26.870Z,1.52
2023-02-26T03:28:59.320Z,1.56
2023-02-26T03:31:31.984Z,1.60
2023-02-26T03:34:23.723Z,1.64
2023-02-26T03:36:55.565Z,1.68
2023-02-26T03:39:27.133Z,1.72
2023-02-26T03:41:58.177Z,1.75
2023-02-26T03:44:26.822Z,1.80
2023-02-26T03:46:59.642Z,1.84
2023-02-26T03:49:32.049Z,1.87
2023-02-26T03:52:00.868Z,1.90
2023-02-26T03:54:36.018Z,1.93
2023-02-26T03:57:04.539Z,1.98
2023-02-26T03:59:33.938Z,2.01
2023-02-26T04:02:16.493Z,2.03
2023-02-26T04:04:47.728Z,2.07
2023-02-26T04:07:17.228Z,2.10
2023-02-26T04:09:46.668Z,2.10
2023-02-26T04:12:15.070Z,2.13
2023-02-26T04:14:42.906Z,2.14
2023-02-26T04:17:10.838Z,2.16
2023-02-26T04:19:38.619Z,2.17
2023-02-26T04:22:06.960Z,2.18
2023-02-26T04:24:34.852Z,2.19
2023-02-26T04:27:02.872Z,2.20
2023-02-26T04:29:30.681Z,2.19
2023-02-26T04:31:58.618Z,2.20
2023-02-26T04:34:26.492Z,2.20
2023-02-26T04:36:54.265Z,2.21
2023-02-26T04:39:21.977Z,2.23
2023-02-26T04:41:51.058Z,2.24
2023-02-26T04:44:18.829Z,2.26
2023-02-26T04:46:47.655Z,2.29
2023-02-26T04:49:15.841Z,2.31
2023-02-26T04:51:43.910Z,2.31
2023-02-26T04:54:11.636Z,2.32
2023-02-26T04:56:39.575Z,2.33
2023-02-26T04:59:07.287Z,2.32
2023-02-26T05:01:36.039Z,2.33
2023-02-26T05:04:03.813Z,2.34
2023-02-26T05:06:31.682Z,2.35
2023-02-26T05:09:00.053Z,2.35
2023-02-26T05:11:28.164Z,2.34
2023-02-26T05:13:56.479Z,2.33
2023-02-26T05:16:24.689Z,2.33
2023-02-26T05:18:53.270Z,2.32
2023-02-26T05:21:22.732Z,2.30
2023-02-26T05:23:51.706Z,2.29
2023-02-26T05:26:19.466Z,2.28
2023-02-26T05:28:47.233Z,2.25
2023-02-26T05:31:15.677Z,2.23
2023-02-26T05:33:43.494Z,2.19
2023-02-26T05:36:11.401Z,2.17
2023-02-26T05:38:39.246Z,2.14
2023-02-26T05:41:06.977Z,2.13
2023-02-26T05:43:34.803Z,2.10
2023-02-26T05:46:02.577Z,2.08
2023-02-26T05:48:30.338Z,2.04
2023-02-26T05:50:58.202Z,2.01
2023-02-26T05:53:26.229Z,1.99
2023-02-26T05:55:54.337Z,2.00
2023-02-26T05:58:22.187Z,2.02
2023-02-26T06:00:50.559Z,2.04
2023-02-26T06:03:18.311Z,2.06
2023-02-26T06:05:46.046Z,2.08
2023-02-26T06:08:15.738Z,2.10
2023-02-26T06:10:43.763Z,2.11
2023-02-26T06:13:11.848Z,2.11
2023-02-26T06:15:39.567Z,2.10
2023-02-26T06:18:08.303Z,2.09
2023-02-26T06:20:36.159Z,2.08
2023-02-26T06:23:04.346Z,2.09
2023-02-26T06:25:32.117Z,2.09
2023-02-26T06:27:59.914Z,2.09
2023-02-26T06:30:27.798Z,2.10
2023-02-26T06:32:56.108Z,2.10
2023-02-26T06:35:24.459Z,2.12
2023-02-26T06:37:52.242Z,2.13
2023-02-26T06:40:20.042Z,2.14
2023-02-26T06:42:47.926Z,2.16
2023-02-26T06:45:15.868Z,2.18
2023-02-26T06:47:43.642Z,2.18
2023-02-26T06:50:12.047Z,2.16
2023-02-26T06:52:39.942Z,2.12
2023-02-26T06:55:07.940Z,2.07
2023-02-26T06:57:35.702Z,2.03
2023-02-26T07:00:07.830Z,1.98
2023-02-26T07:02:36.320Z,1.95
2023-02-26T07:05:04.213Z,1.92
2023-02-26T07:07:32.489Z,1.91
2023-02-26T07:10:00.180Z,1.93
2023-02-26T07:12:28.010Z,1.96
2023-02-26T07:14:55.716Z,1.99
2023-02-26T07:17:23.712Z,2.03
2023-02-26T07:19:52.534Z,2.05
2023-02-26T07:22:22.040Z,2.05
2023-02-26T07:24:50.388Z,2.04
2023-02-26T07:27:18.690Z,2.03
2023-02-26T07:29:46.457Z,2.02
2023-02-26T07:32:14.511Z,2.00
2023-02-26T07:34:42.558Z,2.00
2023-02-26T07:37:10.374Z,1.98
2023-02-26T07:39:38.224Z,1.97
2023-02-26T07:42:06.122Z,1.97
2023-02-26T07:44:33.910Z,1.99
2023-02-26T07:47:01.929Z,2.01
2023-02-26T07:49:29.670Z,2.04
2023-02-26T07:51:57.476Z,2.07
2023-02-26T07:54:25.716Z,2.11
2023-02-26T07:56:53.732Z,2.14
2023-02-26T07:59:21.507Z,2.22
2023-02-26T08:01:49.567Z,2.30
2023-02-26T08:04:17.365Z,2.34
2023-02-26T08:06:46.199Z,2.38
2023-02-26T08:09:15.608Z,2.41
2023-02-26T08:11:43.385Z,2.45
2023-02-26T08:14:11.667Z,2.47
2023-02-26T08:16:39.722Z,2.51
2023-02-26T08:19:07.600Z,2.55
2023-02-26T08:21:35.383Z,2.60
2023-02-26T08:24:03.281Z,2.65
2023-02-26T08:26:31.383Z,2.72
2023-02-26T08:28:59.162Z,2.77
2023-02-26T08:31:28.444Z,2.82
2023-02-26T08:33:57.794Z,2.88
2023-02-26T08:36:26.763Z,2.96
2023-02-26T08:38:54.892Z,3.01
2023-02-26T08:41:23.388Z,3.09
2023-02-26T08:43:51.936Z,3.15
2023-02-26T08:46:20.841Z,3.19
2023-02-26T08:48:48.585Z,3.26
2023-02-26T08:51:16.637Z,3.31
2023-02-26T08:53:46.674Z,3.37
2023-02-26T08:56:14.486Z,3.42
2023-02-26T08:58:42.331Z,3.48
2023-02-26T09:01:10.127Z,3.54
2023-02-26T09:03:37.993Z,3.59
2023-02-26T09:06:05.930Z,3.65
2023-02-26T09:08:36.567Z,3.71
2023-02-26T09:11:05.834Z,3.78
2023-02-26T09:13:33.567Z,3.85
2023-02-26T09:16:01.479Z,3.93
2023-02-26T09:18:29.209Z,4.03
2023-02-26T09:20:57.852Z,4.11
2023-02-26T09:23:25.919Z,4.19
2023-02-26T09:25:55.131Z,4.27
2023-02-26T09:28:23.797Z,4.35
2023-02-26T09:30:55.026Z,4.43
2023-02-26T09:33:23.253Z,4.51
2023-02-26T09:35:51.356Z,4.60
2023-02-26T09:38:19.754Z,4.67
2023-02-26T09:40:52.909Z,4.74
2023-02-26T09:43:35.784Z,4.81
2023-02-26T09:46:06.960Z,4.86
2023-02-26T09:48:36.992Z,4.92
2023-02-26T09:51:07.205Z,4.98
2023-02-26T09:53:38.649Z,5.04
2023-02-26T09:56:24.543Z,5.09
2023-02-26T09:58:55.679Z,5.13
2023-02-26T10:01:33.955Z,5.17
2023-02-26T10:04:04.654Z,5.22
2023-02-26T10:06:39.741Z,5.28
2023-02-26T10:09:13.485Z,5.32
2023-02-26T10:11:42.938Z,5.38
2023-02-26T10:14:14.413Z,5.45
2023-02-26T10:16:46.454Z,5.52
2023-02-26T10:19:16.285Z,5.59
2023-02-26T10:21:47.006Z,5.64
2023-02-26T10:24:22.896Z,5.69
2023-02-26T10:26:54.511Z,5.73
2023-02-26T10:29:45.683Z,5.82
2023-02-26T10:32:25.545Z,5.94
2023-02-26T10:35:03.321Z,6.05
2023-02-26T10:37:50.237Z,6.21
2023-02-26T10:40:25.693Z,6.36
2023-02-26T10:43:02.231Z,6.43
2023-02-26T10:45:30.123Z,6.48
2023-02-26T10:48:14.050Z,6.61
2023-02-26T10:50:46.476Z,6.69
2023-02-26T10:53:14.344Z,6.83
2023-02-26T10:55:45.142Z,6.92
2023-02-26T10:58:14.699Z,6.97
2023-02-26T11:00:43.969Z,7.00
2023-02-26T11:03:22.673Z,6.97
2023-02-26T11:05:50.436Z,6.91
2023-02-26T11:08:20.904Z,6.85
2023-02-26T11:10:52.531Z,6.81
2023-02-26T11:13:22.172Z,6.81
2023-02-26T11:15:51.581Z,6.77
2023-02-26T11:18:23.685Z,6.70
2023-02-26T11:20:54.730Z,6.79
2023-02-26T11:23:24.826Z,6.80
2023-02-26T11:25:54.729Z,6.76
2023-02-26T11:28:26.224Z,6.75
2023-02-26T11:30:54.756Z,6.80
2023-02-26T11:33:22.833Z,6.89
2023-02-26T11:35:51.016Z,6.89
2023-02-26T11:38:21.761Z,6.89
2023-02-26T11:40:52.542Z,6.91
2023-02-26T11:43:21.744Z,6.87
2023-02-26T11:45:54.044Z,6.79
2023-02-26T11:48:26.691Z,6.76
2023-02-26T11:50:59.317Z,6.73
2023-02-26T11:53:38.227Z,6.79
2023-02-26T11:56:12.440Z,6.83
2023-02-26T11:58:41.621Z,6.91
2023-02-26T12:01:16.788Z,6.95
2023-02-26T12:03:47.318Z,6.95
2023-02-26T12:06:17.418Z,6.99
2023-02-26T12:08:46.132Z,7.12
2023-02-26T12:11:32.344Z,7.29
2023-02-26T12:14:06.180Z,7.50
2023-02-26T12:16:56.183Z,7.68
2023-02-26T12:19:29.904Z,7.89
2023-02-26T12:22:12.781Z,8.06
2023-02-26T12:24:52.674Z,8.18
2023-02-26T12:27:39.234Z,8.30
2023-02-26T12:30:07.539Z,8.32
2023-02-26T12:32:35.281Z,8.38
2023-02-26T12:35:22.401Z,8.53
2023-02-26T12:38:02.468Z,8.67
2023-02-26T12:40:33.074Z,8.77
2023-02-26T12:43:00.733Z,8.85
2023-02-26T12:45:38.014Z,8.88
2023-02-26T12:48:11.761Z,8.78
2023-02-26T12:50:39.923Z,8.58
2023-02-26T12:53:11.464Z,8.41
2023-02-26T12:55:50.246Z,8.30
2023-02-26T12:58:37.579Z,8.18
2023-02-26T13:01:20.747Z,8.06
2023-02-26T13:04:07.468Z,8.00
2023-02-26T13:06:35.686Z,7.89
2023-02-26T13:09:12.812Z,7.82
2023-02-26T13:11:52.746Z,7.81
2023-02-26T13:14:20.581Z,7.77
2023-02-26T13:16:51.518Z,7.81
2023-02-26T13:19:37.152Z,7.82
2023-02-26T13:22:23.797Z,7.73
2023-02-26T13:25:17.915Z,7.60
2023-02-26T13:27:46.483Z,7.50
2023-02-26T13:30:23.264Z,7.42
2023-02-26T13:32:53.357Z,7.41
2023-02-26T13:35:37.229Z,7.44
2023-02-26T13:38:16.574Z,7.61
2023-02-26T13:41:00.941Z,7.83
2023-02-26T13:43:31.765Z,8.02
2023-02-26T13:46:10.753Z,8.16
2023-02-26T13:48:54.156Z,8.38
2023-02-26T13:51:25.773Z,8.55
2023-02-26T13:53:55.793Z,8.72
2023-02-26T13:56:32.922Z,8.82
2023-02-26T13:59:13.544Z,8.78
2023-02-26T14:01:48.144Z,8.69
2023-02-26T14:04:19.068Z,8.53
2023-02-26T14:06:52.007Z,8.36
2023-02-26T14:09:22.929Z,8.15
2023-02-26T14:12:02.802Z,7.99
2023-02-26T14:14:36.016Z,7.85
2023-02-26T14:17:09.857Z,7.70
2023-02-26T14:19:39.626Z,7.58
2023-02-26T14:22:25.893Z,7.45
2023-02-26T14:24:54.078Z,7.35
2023-02-26T14:27:24.147Z,7.43
2023-02-26T14:30:06.531Z,7.53
2023-02-26T14:32:45.067Z,7.77
2023-02-26T14:35:22.121Z,8.08
2023-02-26T14:38:03.852Z,8.34
2023-02-26T14:40:36.608Z,8.60
2023-02-26T14:43:05.956Z,8.77
2023-02-26T14:45:39.137Z,8.90
2023-02-26T14:48:11.713Z,8.72
2023-02-26T14:50:57.832Z,8.44
2023-02-26T14:53:44.532Z,8.12
2023-02-26T14:56:12.577Z,7.84
2023-02-26T14:58:40.906Z,7.62
2023-02-26T15:01:21.650Z,7.48
2023-02-26T15:04:03.014Z,7.50
2023-02-26T15:07:03.570Z,7.49
2023-02-26T15:09:40.389Z,7.69
2023-02-26T15:12:08.194Z,7.83
2023-02-26T15:14:36.297Z,7.98
2023-02-26T15:17:04.009Z,8.17
2023-02-26T15:19:34.731Z,8.35
2023-02-26T15:22:02.545Z,8.53
2023-02-26T15:24:31.230Z,8.64
2023-02-26T15:27:02.074Z,8.77
2023-02-26T15:29:31.984Z,8.85
2023-02-26T15:32:03.238Z,8.79
2023-02-26T15:34:33.578Z,8.64
2023-02-26T15:37:01.407Z,8.45
2023-02-26T15:39:29.393Z,8.31
2023-02-26T15:41:57.727Z,8.29
2023-02-26T15:44:28.806Z,8.33
2023-02-26T15:46:59.389Z,8.34
2023-02-26T15:49:32.364Z,8.23
2023-02-26T15:52:01.721Z,8.07
2023-02-26T15:54:42.511Z,7.91
2023-02-26T15:57:11.504Z,7.83
2023-02-26T15:59:44.151Z,7.84
2023-02-26T16:02:16.134Z,7.89
2023-02-26T16:04:44.401Z,7.94
2023-02-26T16:07:13.253Z,7.96
2023-02-26T16:09:42.686Z,7.97
2023-02-26T16:12:13.219Z,7.98
2023-02-26T16:14:43.973Z,8.03
2023-02-26T16:17:14.509Z,8.05
2023-02-26T16:19:44.216Z,8.03
2023-02-26T16:22:20.449Z,7.92
2023-02-26T16:24:51.401Z,7.74
2023-02-26T16:27:19.528Z,7.50
2023-02-26T16:29:52.026Z,7.29
2023-02-26T16:32:21.310Z,7.10
2023-02-26T16:34:51.256Z,6.98
2023-02-26T16:37:34.027Z,6.88
2023-02-26T16:40:11.287Z,6.78
2023-02-26T16:42:45.061Z,6.70
2023-02-26T16:45:20.221Z,6.63
2023-02-26T16:47:52.994Z,6.56
2023-02-26T16:50:32.096Z,6.47
2023-02-26T16:53:02.621Z,6.36
2023-02-26T16:55:32.281Z,6.26
2023-02-26T16:58:03.015Z,6.17
2023-02-26T17:00:31.442Z,6.08
2023-02-26T17:03:04.324Z,6.00
2023-02-26T17:05:34.349Z,5.92
2023-02-26T17:08:21.406Z,5.85
2023-02-26T17:11:02.968Z,5.75
2023-02-26T17:13:32.021Z,5.68
2023-02-26T17:16:04.143Z,5.63
2023-02-26T17:18:33.447Z,5.57
2023-02-26T17:21:10.224Z,5.51
2023-02-26T17:23:38.685Z,5.44
2023-02-26T17:26:06.893Z,5.37
2023-02-26T17:28:40.026Z,5.30
2023-02-26T17:31:08.336Z,5.24
2023-02-26T17:33:36.802Z,5.18
2023-02-26T17:36:04.871Z,5.11
2023-02-26T17:38:33.593Z,5.04
2023-02-26T17:41:01.600Z,4.97
2023-02-26T17:43:29.423Z,4.91
2023-02-26T17:45:57.223Z,4.85
2023-02-26T17:48:25.519Z,4.79
2023-02-26T17:50:55.035Z,4.72
2023-02-26T17:53:24.149Z,4.67
2023-02-26T17:55:53.600Z,4.60
2023-02-26T17:58:24.151Z,4.55
2023-02-26T18:00:53.362Z,4.48
2023-02-26T18:03:21.767Z,4.43
2023-02-26T18:05:50.850Z,4.37
2023-02-26T18:08:23.869Z,4.32
2023-02-26T18:10:53.304Z,4.28
2023-02-26T18:13:21.712Z,4.22
2023-02-26T18:15:50.081Z,4.19
2023-02-26T18:18:18.517Z,4.14
2023-02-26T18:20:46.391Z,4.08
2023-02-26T18:23:17.240Z,4.02
2023-02-26T18:25:47.113Z,3.97
2023-02-26T18:28:17.725Z,3.92
2023-02-26T18:30:45.519Z,3.87
2023-02-26T18:33:17.094Z,3.82
2023-02-26T18:35:47.119Z,3.77
2023-02-26T18:38:15.864Z,3.72
2023-02-26T18:40:44.096Z,3.68
2023-02-26T18:43:12.770Z,3.64
2023-02-26T18:45:41.310Z,3.58
2023-02-26T18:48:13.331Z,3.54
2023-02-26T18:50:41.338Z,3.50
2023-02-26T18:53:09.216Z,3.47
2023-02-26T18:55:37.385Z,3.44
2023-02-26T18:58:05.111Z,3.40
2023-02-26T19:00:33.887Z,3.36
2023-02-26T19:03:01.597Z,3.31
2023-02-26T19:05:29.783Z,3.27
2023-02-26T19:07:57.504Z,3.23
2023-02-26T19:10:25.756Z,3.18
2023-02-26T19:12:53.470Z,3.14
2023-02-26T19:15:21.536Z,3.10
2023-02-26T19:17:49.290Z,3.06
2023-02-26T19:20:17.739Z,3.02
2023-02-26T19:22:46.806Z,2.97
2023-02-26T19:25:14.830Z,2.91
2023-02-26T19:27:42.654Z,2.85
2023-02-26T19:30:10.714Z,2.81
2023-02-26T19:32:38.724Z,2.76
2023-02-26T19:35:07.991Z,2.72
2023-02-26T19:37:36.292Z,2.67
2023-02-26T19:40:10.082Z,2.63
2023-02-26T19:42:38.081Z,2.59
2023-02-26T19:45:05.944Z,2.54
2023-02-26T19:47:33.794Z,2.48
2023-02-26T19:50:01.834Z,2.43
2023-02-26T19:52:31.845Z,2.37
2023-02-26T19:55:00.024Z,2.33
2023-02-26T19:57:28.472Z,2.31
2023-02-26T19:59:56.247Z,2.30
2023-02-26T20:02:24.933Z,2.28
2023-02-26T20:04:53.546Z,2.24
2023-02-26T20:07:22.267Z,2.20
2023-02-26T20:09:50.137Z,2.14
2023-02-26T20:12:18.340Z,2.08
2023-02-26T20:14:46.080Z,2.04
2023-02-26T20:17:13.900Z,1.98
2023-02-26T20:19:41.859Z,1.91
2023-02-26T20:22:09.869Z,1.84
2023-02-26T20:24:37.794Z,1.78
2023-02-26T20:27:07.252Z,1.71
2023-02-26T20:29:34.993Z,1.64
2023-02-26T20:32:03.090Z,1.58
2023-02-26T20:34:31.037Z,1.52
2023-02-26T20:36:58.773Z,1.47
2023-02-26T20:39:26.518Z,1.40
2023-02-26T20:41:54.493Z,1.34
2023-02-26T20:44:22.193Z,1.28
2023-02-26T20:46:50.083Z,1.22
2023-02-26T20:49:18.167Z,1.16
2023-02-26T20:51:46.625Z,1.13
2023-02-26T20:54:15.142Z,1.09
2023-02-26T20:56:42.952Z,1.04
2023-02-26T20:59:10.776Z,0.99
2023-02-26T21:01:38.533Z,0.94
2023-02-26T21:04:07.565Z,0.90
2023-02-26T21:06:35.948Z,0.88
2023-02-26T21:09:04.595Z,0.87
2023-02-26T21:11:36.940Z,0.85
2023-02-26T21:14:06.097Z,0.82
2023-02-26T21:16:34.222Z,0.79
2023-02-26T21:19:03.844Z,0.76
2023-02-26T21:21:32.033Z,0.72
2023-02-26T21:24:00.425Z,0.69
2023-02-26T21:26:28.290Z,0.66
2023-02-26T21:28:56.205Z,0.62
2023-02-26T21:31:24.122Z,0.59
2023-02-26T21:33:52.027Z,0.55
2023-02-26T21:36:21.280Z,0.52
2023-02-26T21:38:49.871Z,0.49
2023-02-26T21:41:17.639Z,0.46
2023-02-26T21:43:45.814Z,0.43
2023-02-26T21:46:13.801Z,0.40
2023-02-26T21:48:41.687Z,0.37
2023-02-26T21:51:09.364Z,0.35
2023-02-26T21:53:37.346Z,0.33
2023-02-26T21:56:05.181Z,0.32
2023-02-26T21:58:33.260Z,0.31
2023-02-26T22:01:01.088Z,0.30
2023-02-26T22:03:28.988Z,0.31
2023-02-26T22:05:57.165Z,0.30
2023-02-26T22:08:25.153Z,0.29
2023-02-26T22:10:52.883Z,0.26
2023-02-26T22:13:20.758Z,0.24
2023-02-26T22:15:48.744Z,0.22
2023-02-26T22:18:16.713Z,0.20
2023-02-26T22:20:44.454Z,0.17
2023-02-26T22:23:13.999Z,0.14
2023-02-26T22:25:41.725Z,0.10
2023-02-26T22:28:09.885Z,0.07
2023-02-26T22:30:37.858Z,0.03
2023-02-26T22:33:05.799Z,-0.01
2023-02-26T22:35:33.501Z,-0.04
2023-02-26T22:38:01.453Z,-0.10
2023-02-26T22:40:29.161Z,-0.19
2023-02-26T22:42:57.104Z,-0.28
2023-02-26T22:45:25.181Z,-0.32
2023-02-26T22:47:52.976Z,-0.35
2023-02-26T22:50:20.703Z,-0.37
2023-02-26T22:52:49.368Z,-0.39
2023-02-26T22:55:17.183Z,-0.40
2023-02-26T22:57:45.556Z,-0.42
2023-02-26T23:00:15.103Z,-0.42
2023-02-26T23:02:42.892Z,-0.42
2023-02-26T23:05:11.135Z,-0.43
2023-02-26T23:07:40.108Z,-0.44
2023-02-26T23:10:09.571Z,-0.46
2023-02-26T23:12:38.577Z,-0.47
2023-02-26T23:15:07.178Z,-0.49
2023-02-26T23:17:35.420Z,-0.52
2023-02-26T23:20:04.238Z,-0.53
2023-02-26T23:22:32.242Z,-0.52
2023-02-26T23:25:00.019Z,-0.51
2023-02-26T23:27:27.896Z,-0.49
2023-02-26T23:29:55.774Z,-0.48
2023-02-26T23:32:24.897Z,-0.47
2023-02-26T23:34:52.807Z,-0.45
2023-02-26T23:37:20.928Z,-0.44
2023-02-26T23:39:49.259Z,-0.43
2023-02-26T23:42:18.174Z,-0.42
2023-02-26T23:44:46.247Z,-0.40
2023-02-26T23:47:14.444Z,-0.38
2023-02-26T23:49:42.279Z,-0.36
2023-02-26T23:52:10.205Z,-0.32
2023-02-26T23:54:39.891Z,-0.30
2023-02-26T23:57:07.805Z,-0.28
2023-02-26T23:59:35.797Z,-0.27
